Time;durP1;ratioP1;P1;durP2;ratioP2;P2;SDS_P1;SDS_P2;PMS_P1;PMS_P2;Temp;Humidity;BMP_temperature;BMP_pressure;BME280_temperature;BME280_humidity;BME280_pressure;Samples;Min_cycle;Max_cycle;Signal;HPM_P1;HPM_P2
2021/09/25 00:00:27;;;;;;;20.90;19.27;;;;;;;13.65;100.00;98990.06;2049850;29;20205;-75
2021/09/25 00:01:29;;;;;;;20.63;18.70;;;;;;;13.70;100.00;98992.56;2050858;28;20282;-75
2021/09/25 00:02:30;;;;;;;20.83;18.83;;;;;;;13.75;100.00;98994.31;2058066;28;20194;-76
2021/09/25 00:03:33;;;;;;;21.03;19.03;;;;;;;13.71;100.00;98985.31;2048761;29;20206;-76
2021/09/25 00:04:37;;;;;;;20.63;19.05;;;;;;;13.69;100.00;98990.22;2049428;28;20198;-75
2021/09/25 00:05:42;;;;;;;21.30;19.30;;;;;;;13.72;100.00;98986.88;2057786;28;20220;-75
2021/09/25 00:06:43;;;;;;;21.17;19.10;;;;;;;13.72;100.00;98992.25;2049022;29;20198;-75
2021/09/25 00:07:44;;;;;;;21.13;19.33;;;;;;;13.70;100.00;98989.13;2049273;29;20193;-76
2021/09/25 00:08:45;;;;;;;21.40;19.30;;;;;;;13.69;100.00;98987.53;2057703;28;20679;-76
2021/09/25 00:09:47;;;;;;;21.07;19.37;;;;;;;13.70;100.00;98989.91;2057700;28;20613;-75
2021/09/25 00:10:49;;;;;;;21.30;19.60;;;;;;;13.72;100.00;98987.69;2049371;28;20202;-75
2021/09/25 00:11:50;;;;;;;21.90;20.05;;;;;;;13.80;100.00;98991.44;2050832;28;20213;-76
2021/09/25 00:12:53;;;;;;;22.07;20.00;;;;;;;13.76;100.00;98983.28;2059231;28;20269;-75
2021/09/25 00:13:53;;;;;;;20.70;18.92;;;;;;;13.75;100.00;98989.75;2059526;28;20185;-76
2021/09/25 00:14:55;;;;;;;20.63;18.87;;;;;;;13.73;100.00;98983.91;2050569;29;20302;-75
2021/09/25 00:15:56;;;;;;;21.40;19.45;;;;;;;13.70;100.00;98989.13;2042698;29;20203;-75
2021/09/25 00:16:58;;;;;;;21.73;19.73;;;;;;;13.66;100.00;98982.81;2050612;29;20728;-75
2021/09/25 00:17:59;;;;;;;20.65;18.77;;;;;;;13.68;100.00;98991.31;2059327;28;20201;-76
2021/09/25 00:19:02;;;;;;;21.17;19.13;;;;;;;13.68;100.00;98992.13;2050566;29;20748;-75
2021/09/25 00:20:06;;;;;;;21.10;18.90;;;;;;;13.67;100.00;98993.22;2050539;29;20294;-75
2021/09/25 00:21:08;;;;;;;21.65;19.58;;;;;;;13.67;100.00;98989.75;2051040;28;20198;-76
2021/09/25 00:22:09;;;;;;;20.83;19.02;;;;;;;13.69;100.00;98987.53;2059373;28;20194;-75
2021/09/25 00:23:11;;;;;;;20.47;18.70;;;;;;;13.69;100.00;98992.91;2050128;29;20297;-75
2021/09/25 00:24:12;;;;;;;21.25;19.48;;;;;;;13.70;100.00;98987.22;2050803;28;20438;-75
2021/09/25 00:25:15;;;;;;;21.85;20.00;;;;;;;13.70;100.00;98978.38;2059100;28;20192;-75
2021/09/25 00:26:15;;;;;;;22.02;19.83;;;;;;;13.69;100.00;98982.97;2059158;28;20656;-75
2021/09/25 00:27:17;;;;;;;21.67;19.60;;;;;;;13.73;100.00;98983.13;2059359;28;20546;-75
2021/09/25 00:28:19;;;;;;;21.00;19.20;;;;;;;13.68;100.00;98973.34;2059128;28;20205;-75
2021/09/25 00:29:20;;;;;;;21.40;19.40;;;;;;;13.69;100.00;98977.59;2059137;28;20197;-76
2021/09/25 00:30:22;;;;;;;20.37;18.47;;;;;;;13.69;100.00;98987.53;2059131;28;20280;-75
2021/09/25 00:31:24;;;;;;;21.13;19.40;;;;;;;13.68;100.00;98980.59;2050467;29;20677;-75
2021/09/25 00:32:24;;;;;;;21.35;19.50;;;;;;;13.68;100.00;98986.75;2050475;29;20198;-75
2021/09/25 00:33:27;;;;;;;20.73;18.92;;;;;;;13.75;100.00;98987.06;2050822;28;20253;-75
2021/09/25 00:34:28;;;;;;;20.45;18.70;;;;;;;13.80;100.00;98981.50;2050554;29;20205;-75
2021/09/25 00:35:31;;;;;;;20.03;18.33;;;;;;;13.77;100.00;98989.41;2050462;29;20293;-76
2021/09/25 00:36:31;;;;;;;20.35;18.75;;;;;;;13.77;100.00;98981.38;2050497;29;20202;-76
2021/09/25 00:37:33;;;;;;;20.53;18.53;;;;;;;13.77;100.00;98987.53;2042516;29;20201;-76
2021/09/25 00:38:36;;;;;;;20.88;18.73;;;;;;;13.76;100.00;98985.94;2050726;28;20198;-75
2021/09/25 00:39:38;;;;;;;21.00;19.17;;;;;;;13.78;100.00;98988.31;2059164;28;20194;-76
2021/09/25 00:40:39;;;;;;;20.83;18.90;;;;;;;13.76;100.00;98988.63;2050567;29;20206;-76
2021/09/25 00:41:41;;;;;;;20.13;18.30;;;;;;;13.73;100.00;98983.91;2050367;28;20301;-76
2021/09/25 00:42:42;;;;;;;21.48;19.48;;;;;;;13.75;100.00;98987.06;2059007;28;20194;-75
2021/09/25 00:43:44;;;;;;;20.80;18.90;;;;;;;13.74;100.00;98993.53;2050400;29;20222;-75
2021/09/25 00:44:45;;;;;;;21.25;19.55;;;;;;;13.76;100.00;98985.94;2050339;29;20748;-74
2021/09/25 00:45:55;;;;;;;20.60;18.90;;;;;;;13.76;100.00;98982.47;2050456;29;20671;-75
2021/09/25 00:46:58;;;;;;;21.35;19.23;;;;;;;13.72;100.00;98978.84;2059004;28;20174;-75
2021/09/25 00:47:59;;;;;;;20.85;18.98;;;;;;;13.74;100.00;98995.44;2059221;28;20538;-76
2021/09/25 00:49:00;;;;;;;21.20;19.20;;;;;;;13.71;100.00;98985.31;2058965;28;20189;-75
2021/09/25 00:50:02;;;;;;;20.10;18.50;;;;;;;13.70;100.00;98986.44;2058931;28;20182;-76
2021/09/25 00:51:05;;;;;;;21.80;19.77;;;;;;;13.75;100.00;98978.22;2050275;29;20241;-75
2021/09/25 00:52:06;;;;;;;21.58;19.77;;;;;;;13.78;100.00;98980.25;2050543;28;20194;-75
2021/09/25 00:53:08;;;;;;;21.95;20.08;;;;;;;13.76;100.00;98980.59;2050301;29;20187;-76
2021/09/25 00:54:09;;;;;;;21.77;19.80;;;;;;;13.74;100.00;98977.44;2050784;28;20221;-75
2021/09/25 00:55:13;;;;;;;21.37;19.47;;;;;;;13.73;100.00;98983.13;2059179;28;20200;-75
2021/09/25 00:56:13;;;;;;;21.05;19.38;;;;;;;13.74;100.00;98984.69;2050210;29;20206;-75
2021/09/25 00:57:15;;;;;;;21.20;19.40;;;;;;;13.72;100.00;98976.16;2050349;29;20190;-75
2021/09/25 00:58:18;;;;;;;21.20;19.27;;;;;;;13.71;100.00;98977.28;2058981;28;20574;-76
2021/09/25 00:59:20;;;;;;;20.95;19.38;;;;;;;13.66;100.00;98972.88;2059078;28;20200;-76
2021/09/25 01:00:23;;;;;;;20.85;18.95;;;;;;;13.70;100.00;98978.38;2050188;29;20198;-75
2021/09/25 01:01:24;;;;;;;21.88;19.42;;;;;;;13.68;100.00;98975.25;2050429;28;20704;-75
2021/09/25 01:02:26;;;;;;;21.13;18.77;;;;;;;13.67;100.00;98979.03;2059098;28;20546;-75
2021/09/25 01:03:28;;;;;;;21.02;19.20;;;;;;;13.66;100.00;98980.94;2058931;28;20206;-75
2021/09/25 01:04:30;;;;;;;20.80;19.23;;;;;;;13.65;100.00;98979.34;2058829;28;20198;-76
2021/09/25 01:05:32;;;;;;;20.63;19.00;;;;;;;13.65;100.00;98975.88;2049947;29;20206;-75
2021/09/25 01:06:39;;;;;;;21.85;19.95;;;;;;;13.66;100.00;98982.81;2050488;28;20194;-76
2021/09/25 01:07:40;;;;;;;22.05;19.77;;;;;;;13.64;100.00;98976.97;2059118;28;20248;-75
2021/09/25 01:08:42;;;;;;;22.03;20.30;;;;;;;13.63;100.00;98981.53;2058837;28;20197;-75
2021/09/25 01:09:43;;;;;;;21.00;19.20;;;;;;;13.61;100.00;98975.72;2058797;28;20200;-76
2021/09/25 01:10:45;;;;;;;21.37;19.67;;;;;;;13.62;100.00;98979.97;2050188;29;20198;-75
2021/09/25 01:11:46;;;;;;;21.25;19.27;;;;;;;13.62;100.00;98971.94;2050478;28;20186;-75
2021/09/25 01:12:48;;;;;;;21.13;19.27;;;;;;;13.61;100.00;98977.63;2050205;29;20226;-76
2021/09/25 01:13:49;;;;;;;20.98;19.17;;;;;;;13.57;100.00;98980.94;2042298;29;20302;-75
2021/09/25 01:14:51;;;;;;;22.25;19.90;;;;;;;13.60;100.00;98981.41;2050200;29;20190;-75
2021/09/25 01:15:53;;;;;;;21.88;19.77;;;;;;;13.60;100.00;98984.88;2058462;28;20213;-75
2021/09/25 01:17:04;;;;;;;21.25;19.45;;;;;;;13.57;100.00;98980.16;2058789;28;20182;-75
2021/09/25 01:18:23;;;;;;;21.42;19.50;;;;;;;13.54;100.00;98976.19;2050245;29;20205;-75
2021/09/25 01:19:24;;;;;;;19.70;18.15;;;;;;;13.53;100.00;98974.63;2052765;28;20209;-75
2021/09/25 01:20:26;;;;;;;20.83;19.13;;;;;;;13.52;100.00;98978.41;2050052;29;20293;-75
2021/09/25 01:21:29;;;;;;;21.50;19.67;;;;;;;13.51;100.00;98971.47;2050282;28;20221;-75
2021/09/25 01:22:31;;;;;;;20.33;18.65;;;;;;;13.49;100.00;98973.69;2058066;28;20213;-75
2021/09/25 01:23:32;;;;;;;20.65;18.80;;;;;;;13.50;100.00;98969.91;2049823;29;20198;-76
2021/09/25 01:24:34;;;;;;;21.03;19.33;;;;;;;13.49;100.00;98975.59;2050304;29;20195;-75
2021/09/25 01:25:35;;;;;;;20.80;19.08;;;;;;;13.50;100.00;98969.91;2058843;28;20194;-75
2021/09/25 01:26:37;;;;;;;21.10;19.30;;;;;;;13.47;100.00;98973.22;2049666;29;20240;-75
2021/09/25 01:27:39;;;;;;;20.83;19.02;;;;;;;13.47;100.00;98975.13;2050395;28;20225;-76
2021/09/25 01:28:44;;;;;;;20.88;18.98;;;;;;;13.46;100.00;98973.53;2049592;29;20206;-75
2021/09/25 01:29:45;;;;;;;20.23;18.77;;;;;;;13.44;100.00;98973.06;2050430;28;20239;-75
2021/09/25 01:30:46;;;;;;;20.73;18.92;;;;;;;13.44;100.00;98973.06;2058664;28;20188;-75
2021/09/25 01:31:47;;;;;;;20.90;19.00;;;;;;;13.46;100.00;98970.84;2058653;28;20548;-75
2021/09/25 01:32:50;;;;;;;21.67;19.53;;;;;;;13.44;100.00;98968.47;2050026;29;20225;-76
2021/09/25 01:33:52;;;;;;;20.77;19.08;;;;;;;13.44;100.00;98976.53;2050273;28;20578;-75
2021/09/25 01:34:54;;;;;;;21.23;19.33;;;;;;;13.43;100.00;98974.16;2058878;28;20577;-76
2021/09/25 01:35:56;;;;;;;20.88;19.02;;;;;;;13.41;100.00;98971.81;2058618;28;20194;-76
2021/09/25 01:36:58;;;;;;;21.63;19.52;;;;;;;13.40;100.00;98972.91;2058832;28;20193;-76
2021/09/25 01:38:02;;;;;;;22.08;19.90;;;;;;;13.41;100.00;98979.06;2058633;28;20641;-75
2021/09/25 01:39:03;;;;;;;21.58;19.83;;;;;;;13.40;100.00;98975.59;2058643;28;20194;-76
2021/09/25 01:40:06;;;;;;;21.58;19.77;;;;;;;13.38;100.00;98975.13;2050036;29;20276;-76
2021/09/25 01:41:08;;;;;;;21.83;19.95;;;;;;;13.37;100.00;98970.84;2042154;29;20686;-76
2021/09/25 01:42:12;;;;;;;21.50;19.60;;;;;;;13.38;100.00;98977.81;2050356;28;20621;-76
2021/09/25 01:43:15;;;;;;;21.13;19.23;;;;;;;13.38;100.00;98975.13;2058592;28;20198;-75
2021/09/25 01:44:17;;;;;;;21.15;19.30;;;;;;;13.38;100.00;98975.13;2058562;28;20608;-75
2021/09/25 01:45:18;;;;;;;21.25;19.13;;;;;;;13.38;100.00;98969.78;2058678;28;20193;-75
2021/09/25 01:46:20;;;;;;;20.63;18.80;;;;;;;13.37;100.00;98970.84;2049902;29;20210;-76
2021/09/25 01:47:20;;;;;;;21.35;19.48;;;;;;;13.38;100.00;98971.63;2050089;28;20194;-75
2021/09/25 01:48:23;;;;;;;21.53;19.73;;;;;;;13.35;100.00;98967.69;2058559;28;20194;-75
2021/09/25 01:49:24;;;;;;;20.65;19.02;;;;;;;13.38;100.00;98977.81;2058547;28;20218;-76
2021/09/25 01:50:26;;;;;;;21.35;19.60;;;;;;;13.36;100.00;98974.63;2049933;29;20289;-76
2021/09/25 01:51:27;;;;;;;22.77;20.60;;;;;;;13.36;100.00;98971.94;2050000;28;20763;-75
2021/09/25 01:52:31;;;;;;;22.80;20.60;;;;;;;13.34;100.00;98976.84;2058638;28;20272;-75
2021/09/25 01:53:32;;;;;;;21.25;19.40;;;;;;;13.33;100.00;98969.91;2058591;28;20206;-75
2021/09/25 01:54:33;;;;;;;21.30;19.45;;;;;;;13.35;100.00;98977.63;2058461;28;20553;-75
2021/09/25 01:55:35;;;;;;;20.27;18.63;;;;;;;13.35;100.00;98978.41;2058525;28;20193;-76
2021/09/25 01:56:36;;;;;;;20.45;18.88;;;;;;;13.37;100.00;98976.19;2058662;28;20197;-76
2021/09/25 01:57:38;;;;;;;20.05;18.55;;;;;;;13.38;100.00;98971.63;2058388;28;20194;-76
2021/09/25 01:58:40;;;;;;;20.75;18.63;;;;;;;13.37;100.00;98970.84;2049483;28;20666;-75
2021/09/25 01:59:42;;;;;;;21.13;19.30;;;;;;;13.38;100.00;98974.31;2049764;29;20205;-75
2021/09/25 02:00:43;;;;;;;20.25;18.65;;;;;;;13.43;100.00;98976.84;2049844;29;20643;-75
2021/09/25 02:01:44;;;;;;;22.57;19.10;;;;;;;13.41;100.00;98971.81;2049421;29;20261;-75
2021/09/25 02:02:46;;;;;;;19.90;18.27;;;;;;;13.41;100.00;98971.81;2049980;28;20695;-75
2021/09/25 02:03:48;;;;;;;20.02;18.50;;;;;;;13.42;100.00;98969.91;2049647;29;20213;-76
2021/09/25 02:04:49;;;;;;;20.17;18.55;;;;;;;13.43;100.00;98976.84;2049943;28;20727;-75
2021/09/25 02:05:51;;;;;;;21.13;19.30;;;;;;;13.41;100.00;98971.81;2058479;28;20193;-76
2021/09/25 02:06:51;;;;;;;20.60;18.88;;;;;;;13.46;100.00;98968.16;2049768;29;20213;-75
2021/09/25 02:07:54;;;;;;;19.93;18.20;;;;;;;13.43;100.00;98969.59;2049443;29;20226;-75
2021/09/25 02:08:56;;;;;;;20.65;18.75;;;;;;;13.42;100.00;98968.00;2050227;28;20669;-75
2021/09/25 02:09:59;;;;;;;21.02;19.05;;;;;;;13.40;100.00;98970.22;2058337;28;20194;-75
2021/09/25 02:11:10;;;;;;;20.90;19.10;;;;;;;13.36;100.00;98971.94;2058343;28;20591;-75
2021/09/25 02:12:11;;;;;;;21.20;19.23;;;;;;;13.38;100.00;98968.94;2058486;28;20636;-75
2021/09/25 02:13:13;;;;;;;20.80;18.70;;;;;;;13.35;100.00;98973.06;2058303;28;20558;-75
2021/09/25 02:14:13;;;;;;;21.52;19.50;;;;;;;13.34;100.00;98970.69;2049324;29;20214;-76
2021/09/25 02:15:15;;;;;;;20.83;19.13;;;;;;;13.34;100.00;98968.03;2049900;29;20281;-76
2021/09/25 02:16:16;;;;;;;22.40;20.50;;;;;;;13.34;100.00;98976.84;2058302;28;20194;-75
2021/09/25 02:17:21;;;;;;;21.77;19.80;;;;;;;13.33;100.00;98972.59;2049677;29;20198;-75
2021/09/25 02:18:22;;;;;;;22.25;20.35;;;;;;;13.39;100.00;98976.69;2042150;29;20225;-75
2021/09/25 02:19:24;;;;;;;20.80;19.20;;;;;;;13.39;100.00;98979.38;2041291;29;20202;-75
2021/09/25 02:20:24;;;;;;;20.77;18.98;;;;;;;13.41;100.00;98974.47;2041750;29;20222;-75
2021/09/25 02:21:26;;;;;;;21.40;19.30;;;;;;;13.40;100.00;98964.88;2049748;29;20273;-75
2021/09/25 02:22:27;;;;;;;21.00;19.00;;;;;;;13.44;100.00;98973.06;2049669;29;20685;-75
2021/09/25 02:23:31;;;;;;;20.60;18.63;;;;;;;13.43;100.00;98982.19;2049879;28;20713;-75
2021/09/25 02:24:34;;;;;;;20.33;18.63;;;;;;;13.39;100.00;98976.69;2049601;29;20206;-75
2021/09/25 02:25:36;;;;;;;20.48;18.67;;;;;;;13.37;100.00;98970.06;2049585;29;20190;-76
2021/09/25 02:26:36;;;;;;;20.90;19.20;;;;;;;13.35;100.00;98978.41;2049944;28;20191;-75
2021/09/25 02:27:40;;;;;;;20.90;19.10;;;;;;;13.35;100.00;98973.06;2049597;29;20245;-76
2021/09/25 02:28:41;;;;;;;20.63;19.08;;;;;;;13.36;100.00;98981.88;2050210;28;20229;-75
2021/09/25 02:29:43;;;;;;;20.97;19.07;;;;;;;13.34;100.00;98976.84;2058267;28;20204;-75
2021/09/25 02:30:45;;;;;;;20.42;18.92;;;;;;;13.34;100.00;98976.84;2049659;29;20205;-75
2021/09/25 02:31:47;;;;;;;21.50;19.50;;;;;;;13.34;100.00;98976.84;2049806;28;20210;-75
2021/09/25 02:32:48;;;;;;;20.90;19.23;;;;;;;13.32;100.00;98968.34;2058273;28;20233;-75
2021/09/25 02:33:50;;;;;;;20.50;18.87;;;;;;;13.33;100.00;98979.84;2058188;28;20217;-76
2021/09/25 02:34:50;;;;;;;19.77;17.98;;;;;;;13.29;100.00;98980.50;2049532;29;20457;-75
2021/09/25 02:35:52;;;;;;;20.77;18.63;;;;;;;13.28;100.00;98981.56;2049614;28;20266;-74
2021/09/25 02:36:55;;;;;;;19.92;18.13;;;;;;;13.27;100.00;98973.84;2058266;28;20657;-75
2021/09/25 02:37:56;;;;;;;21.23;19.23;;;;;;;13.30;100.00;98986.63;2058114;28;20649;-76
2021/09/25 02:38:59;;;;;;;21.30;19.52;;;;;;;13.32;100.00;98981.75;2058140;28;20189;-75
2021/09/25 02:40:02;;;;;;;20.52;18.60;;;;;;;13.32;100.00;98973.69;2058317;28;20212;-75
2021/09/25 02:41:04;;;;;;;20.02;18.48;;;;;;;13.32;100.00;98970.22;2049529;29;20701;-76
2021/09/25 02:42:05;;;;;;;20.13;18.63;;;;;;;13.32;100.00;98978.28;2049573;28;20201;-75
2021/09/25 02:43:07;;;;;;;21.02;19.40;;;;;;;13.32;100.00;98984.41;2049459;29;20222;-75
2021/09/25 02:44:07;;;;;;;20.98;19.23;;;;;;;13.32;100.00;98973.69;2049073;29;20226;-75
2021/09/25 02:45:10;;;;;;;20.57;18.90;;;;;;;13.32;100.00;98976.38;2049583;29;20274;-75
2021/09/25 02:46:10;;;;;;;20.58;19.00;;;;;;;13.33;100.00;98979.84;2049528;29;20199;-74
2021/09/25 02:47:12;;;;;;;20.20;18.50;;;;;;;13.35;100.00;98972.28;2049569;29;20229;-75
2021/09/25 02:48:14;;;;;;;20.45;18.73;;;;;;;13.33;100.00;98977.94;2058079;28;20202;-75
2021/09/25 02:49:15;;;;;;;20.33;18.52;;;;;;;13.33;100.00;98983.31;2058142;28;20240;-75
2021/09/25 02:50:18;;;;;;;19.93;18.33;;;;;;;13.31;100.00;98982.06;2058263;28;20193;-76
2021/09/25 02:51:19;;;;;;;20.48;18.88;;;;;;;13.30;100.00;98983.97;2058069;28;20197;-75
2021/09/25 02:52:20;;;;;;;20.40;18.80;;;;;;;13.28;100.00;98989.59;2058315;28;20188;-74
2021/09/25 02:53:21;;;;;;;20.60;18.85;;;;;;;13.27;100.00;98981.88;2058054;28;20614;-75
2021/09/25 02:54:25;;;;;;;20.30;18.80;;;;;;;13.27;100.00;98992.59;2058015;28;20198;-75
2021/09/25 02:55:28;;;;;;;19.92;18.35;;;;;;;13.23;100.00;98980.94;2058036;28;20198;-76
2021/09/25 02:56:33;;;;;;;21.50;19.70;;;;;;;13.22;100.00;98982.84;2049135;29;20216;-75
2021/09/25 02:57:34;;;;;;;21.10;19.38;;;;;;;13.22;100.00;98982.84;2049770;28;20198;-75
2021/09/25 02:58:35;;;;;;;21.43;19.63;;;;;;;13.22;100.00;98984.75;2057950;28;20293;-75
2021/09/25 02:59:36;;;;;;;20.23;18.52;;;;;;;13.22;100.00;98990.09;2058148;28;20197;-76
2021/09/25 03:00:38;;;;;;;20.30;18.57;;;;;;;13.20;100.00;98987.72;2058070;28;20268;-75
2021/09/25 03:01:39;;;;;;;20.67;18.63;;;;;;;13.19;100.00;98988.00;2057759;28;20660;-76
2021/09/25 03:02:41;;;;;;;20.23;18.67;;;;;;;13.18;100.00;98986.44;2049303;29;20301;-75
2021/09/25 03:03:42;;;;;;;21.17;19.13;;;;;;;13.16;100.00;98983.28;2049480;28;20194;-75
2021/09/25 03:04:43;;;;;;;20.77;18.88;;;;;;;13.13;100.00;98982.03;2058177;28;20201;-75
2021/09/25 03:05:45;;;;;;;20.90;19.10;;;;;;;13.14;100.00;98985.50;2057970;28;20193;-75
2021/09/25 03:06:46;;;;;;;20.35;18.70;;;;;;;13.17;100.00;98982.16;2049339;29;20198;-75
2021/09/25 03:07:47;;;;;;;20.97;19.40;;;;;;;13.16;100.00;98980.59;2049347;29;20274;-76
2021/09/25 03:08:49;;;;;;;22.20;20.13;;;;;;;13.15;100.00;98981.72;2049239;29;20272;-75
2021/09/25 03:09:52;;;;;;;20.95;19.00;;;;;;;13.13;100.00;98981.25;2049636;28;20186;-75
2021/09/25 03:10:53;;;;;;;21.48;19.60;;;;;;;13.12;100.00;98979.63;2057905;28;20645;-75
2021/09/25 03:11:54;;;;;;;20.67;18.87;;;;;;;13.14;100.00;98986.28;2057905;28;20541;-75
2021/09/25 03:12:55;;;;;;;20.67;18.98;;;;;;;13.13;100.00;98987.38;2048915;29;20526;-76
2021/09/25 03:13:57;;;;;;;20.00;18.40;;;;;;;13.14;100.00;98982.81;2049706;29;20289;-75
2021/09/25 03:14:58;;;;;;;22.30;19.98;;;;;;;13.15;100.00;98987.06;2057937;28;20185;-75
2021/09/25 03:16:01;;;;;;;20.93;19.00;;;;;;;13.14;100.00;98985.50;2057914;28;20213;-75
2021/09/25 03:17:03;;;;;;;20.90;19.02;;;;;;;13.11;100.00;98980.75;2049390;29;20681;-76
2021/09/25 03:18:04;;;;;;;20.38;18.63;;;;;;;13.15;100.00;98984.38;2049527;28;20183;-76
2021/09/25 03:19:05;;;;;;;19.85;18.25;;;;;;;13.11;100.00;98981.53;2057912;28;20204;-75
2021/09/25 03:20:08;;;;;;;20.63;18.83;;;;;;;13.13;100.00;98986.59;2057901;28;20182;-75
2021/09/25 03:21:09;;;;;;;19.95;18.38;;;;;;;13.11;100.00;98981.53;2057838;28;20260;-76
2021/09/25 03:22:10;;;;;;;21.07;18.83;;;;;;;13.13;100.00;98989.28;2057939;28;20186;-75
2021/09/25 03:23:12;;;;;;;21.10;19.30;;;;;;;13.11;100.00;98984.22;2057866;28;20190;-75
2021/09/25 03:24:13;;;;;;;21.33;19.50;;;;;;;13.12;100.00;98985.00;2058068;28;20229;-75
2021/09/25 03:25:16;;;;;;;20.80;18.97;;;;;;;13.15;100.00;98989.75;2057871;28;20194;-75
2021/09/25 03:26:17;;;;;;;21.40;19.30;;;;;;;13.14;100.00;98998.88;2049259;29;20705;-75
2021/09/25 03:27:19;;;;;;;21.20;19.07;;;;;;;13.13;100.00;98989.28;2048938;29;20569;-76
2021/09/25 03:28:20;;;;;;;20.75;18.95;;;;;;;13.14;100.00;98993.53;2048879;29;20727;-75
2021/09/25 03:29:22;;;;;;;20.90;18.87;;;;;;;13.10;100.00;98990.66;2049357;29;20623;-76
2021/09/25 03:30:23;;;;;;;20.65;18.92;;;;;;;13.10;100.00;98992.56;2057823;28;20276;-76
2021/09/25 03:31:25;;;;;;;20.90;19.27;;;;;;;13.13;100.00;99002.66;2057858;28;20273;-75
2021/09/25 03:32:26;;;;;;;21.40;19.35;;;;;;;13.14;100.00;98999.66;2057801;28;20198;-75
2021/09/25 03:33:28;;;;;;;21.73;19.83;;;;;;;13.15;100.00;98998.56;2058029;28;20276;-76
2021/09/25 03:34:29;;;;;;;20.95;19.17;;;;;;;13.13;100.00;98997.31;2057939;28;20197;-76
2021/09/25 03:35:30;;;;;;;21.17;19.27;;;;;;;13.10;100.00;98992.56;2058092;28;20813;-75
2021/09/25 03:36:32;;;;;;;21.02;19.38;;;;;;;13.12;100.00;99001.06;2057826;28;20220;-76
2021/09/25 03:37:33;;;;;;;21.92;19.92;;;;;;;13.11;100.00;98997.59;2057923;28;20205;-75
2021/09/25 03:38:35;;;;;;;20.50;18.77;;;;;;;13.13;100.00;98994.63;2049150;29;20282;-76
2021/09/25 03:39:36;;;;;;;21.48;19.75;;;;;;;13.12;100.00;98998.38;2049329;28;20693;-75
2021/09/25 03:40:39;;;;;;;22.47;20.10;;;;;;;13.09;100.00;98994.44;2057822;28;20205;-76
2021/09/25 03:41:39;;;;;;;21.38;19.65;;;;;;;13.11;100.00;98994.13;2049162;29;20203;-75
2021/09/25 03:42:41;;;;;;;21.60;19.70;;;;;;;13.11;100.00;98994.91;2049421;28;20234;-75
2021/09/25 03:43:42;;;;;;;21.70;19.73;;;;;;;13.13;100.00;98997.31;2057763;28;20217;-75
2021/09/25 03:44:44;;;;;;;22.07;20.37;;;;;;;13.12;100.00;98998.38;2049155;29;20202;-75
2021/09/25 03:45:45;;;;;;;21.90;20.05;;;;;;;13.13;100.00;98994.63;2049492;28;20265;-76
2021/09/25 03:46:46;;;;;;;21.40;19.60;;;;;;;13.11;100.00;98999.50;2050738;29;20202;-75
2021/09/25 03:47:51;;;;;;;21.92;19.92;;;;;;;13.12;100.00;98998.38;2050607;29;20198;-75
2021/09/25 03:48:51;;;;;;;21.65;19.95;;;;;;;13.11;100.00;99002.16;2051226;28;20198;-75
2021/09/25 03:49:53;;;;;;;21.93;20.00;;;;;;;13.10;100.00;99001.38;2059617;28;20236;-75
2021/09/25 03:50:55;;;;;;;21.77;20.08;;;;;;;13.13;100.00;98997.31;2050404;29;20222;-75
2021/09/25 03:51:55;;;;;;;21.70;20.00;;;;;;;13.12;100.00;99001.06;2050436;29;20210;-75
2021/09/25 03:52:57;;;;;;;21.27;19.60;;;;;;;13.15;100.00;99000.47;2050853;29;20741;-75
2021/09/25 03:53:59;;;;;;;21.52;19.80;;;;;;;13.13;100.00;99000.00;2059485;28;20590;-75
2021/09/25 03:55:01;;;;;;;21.85;20.05;;;;;;;13.13;100.00;99000.00;2051091;28;20202;-75
2021/09/25 03:56:08;;;;;;;21.80;19.90;;;;;;;13.13;100.00;99002.66;2042967;29;20202;-75
2021/09/25 03:57:09;;;;;;;21.45;19.48;;;;;;;13.13;100.00;99003.47;2051768;28;20187;-76
2021/09/25 03:58:10;;;;;;;20.40;18.80;;;;;;;13.14;100.00;99006.91;2059475;28;20663;-75
2021/09/25 03:59:12;;;;;;;21.23;19.27;;;;;;;13.12;100.00;99001.88;2059358;28;20544;-76
2021/09/25 04:00:13;;;;;;;21.50;19.77;;;;;;;13.11;100.00;98994.91;2059459;28;20197;-76
2021/09/25 04:01:15;;;;;;;21.17;19.30;;;;;;;13.13;100.00;99002.66;2059318;28;20660;-75
2021/09/25 04:02:16;;;;;;;20.70;19.00;;;;;;;13.12;100.00;99007.25;2059290;28;20594;-75
2021/09/25 04:03:18;;;;;;;21.43;19.47;;;;;;;13.11;100.00;98996.81;2050582;29;20266;-75
2021/09/25 04:04:19;;;;;;;21.25;19.35;;;;;;;13.08;100.00;99000.91;2050779;28;20198;-75
2021/09/25 04:05:21;;;;;;;21.23;19.33;;;;;;;13.09;100.00;99004.38;2059532;28;20272;-75
2021/09/25 04:06:23;;;;;;;20.63;19.17;;;;;;;13.09;100.00;99001.69;2050660;29;20201;-75
2021/09/25 04:07:25;;;;;;;22.15;20.05;;;;;;;13.08;100.00;98997.44;2042541;29;20231;-75
2021/09/25 04:08:27;;;;;;;21.25;19.48;;;;;;;13.08;100.00;99003.59;2050978;28;20681;-75
2021/09/25 04:09:29;;;;;;;20.80;19.20;;;;;;;13.07;100.00;99015.41;2059240;28;20664;-75
2021/09/25 04:10:29;;;;;;;20.40;18.70;;;;;;;13.07;100.00;99014.63;2059268;28;20193;-75
2021/09/25 04:11:33;;;;;;;21.23;19.50;;;;;;;13.09;100.00;99018.56;2059260;28;20182;-75
2021/09/25 04:12:33;;;;;;;20.63;18.92;;;;;;;13.10;100.00;99020.13;2050590;29;20210;-75
2021/09/25 04:13:35;;;;;;;20.50;19.00;;;;;;;13.09;100.00;99015.09;2050800;29;20198;-75
2021/09/25 04:14:36;;;;;;;20.88;19.33;;;;;;;13.08;100.00;99021.56;2059204;28;20668;-75
2021/09/25 04:15:38;;;;;;;21.47;19.67;;;;;;;13.08;100.00;99018.88;2059566;28;20558;-75
2021/09/25 04:16:39;;;;;;;20.90;19.27;;;;;;;13.07;100.00;99025.34;2050542;29;20202;-76
2021/09/25 04:17:41;;;;;;;21.07;19.37;;;;;;;13.06;100.00;99018.41;2050756;29;20193;-75
2021/09/25 04:18:41;;;;;;;20.70;19.00;;;;;;;13.06;100.00;99018.41;2059456;28;20201;-75
2021/09/25 04:19:43;;;;;;;21.40;19.60;;;;;;;13.04;100.00;99021.41;2050513;29;20202;-75
2021/09/25 04:20:44;;;;;;;21.25;19.33;;;;;;;13.05;100.00;99022.19;2050630;28;20194;-75
2021/09/25 04:21:46;;;;;;;21.07;19.30;;;;;;;13.06;100.00;99018.41;2050536;29;20206;-76
2021/09/25 04:22:47;;;;;;;21.20;19.40;;;;;;;13.06;100.00;99023.75;2050651;28;20692;-75
2021/09/25 04:23:49;;;;;;;21.23;19.30;;;;;;;13.05;100.00;99027.56;2059206;28;20523;-75
2021/09/25 04:24:50;;;;;;;20.98;19.38;;;;;;;13.04;100.00;99020.63;2059159;28;20194;-75
2021/09/25 04:25:52;;;;;;;21.42;19.60;;;;;;;13.05;100.00;99030.22;2059150;28;20186;-75
2021/09/25 04:26:54;;;;;;;21.60;19.70;;;;;;;13.06;100.00;99026.44;2059239;28;20190;-76
2021/09/25 04:27:56;;;;;;;21.48;19.40;;;;;;;13.05;100.00;99030.22;2050261;29;20198;-75
2021/09/25 04:28:57;;;;;;;21.23;19.67;;;;;;;13.04;100.00;99031.34;2050475;29;20595;-75
2021/09/25 04:29:59;;;;;;;21.10;19.50;;;;;;;13.06;100.00;99029.13;2050758;28;20183;-75
2021/09/25 04:31:00;;;;;;;21.08;19.33;;;;;;;13.06;100.00;99026.44;2059122;28;20761;-75
2021/09/25 04:32:02;;;;;;;22.25;20.35;;;;;;;13.05;100.00;99032.91;2059147;28;20201;-75
2021/09/25 04:33:04;;;;;;;21.70;20.10;;;;;;;13.07;100.00;99033.38;2059095;28;20182;-75
2021/09/25 04:34:05;;;;;;;20.63;19.13;;;;;;;13.06;100.00;99040.63;2059124;28;20198;-75
2021/09/25 04:35:07;;;;;;;22.17;20.37;;;;;;;13.05;100.00;99035.59;2050470;29;20203;-75
2021/09/25 04:36:09;;;;;;;22.63;20.77;;;;;;;13.05;100.00;99033.69;2050648;28;20697;-75
2021/09/25 04:37:11;;;;;;;22.90;21.20;;;;;;;13.05;100.00;99038.25;2050158;29;20202;-76
2021/09/25 04:38:12;;;;;;;22.63;20.73;;;;;;;13.05;100.00;99039.06;2050607;28;20221;-75
2021/09/25 04:39:13;;;;;;;22.27;20.40;;;;;;;13.07;100.00;99036.06;2050073;29;20210;-75
2021/09/25 04:40:14;;;;;;;22.42;20.67;;;;;;;13.06;100.00;99037.16;2050586;28;20744;-75
2021/09/25 04:41:16;;;;;;;22.00;20.10;;;;;;;13.06;100.00;99043.31;2059135;28;20611;-75